Impacts TAF Board
For situational awareness. Not to be used for flight planning purposes.
IDs:

KMCO - Orlando Intl, FL, US

Issued at 2041 UTC 21 Sep 2021
Updated at 2054 UTC 21 Sep 2021
Potential Impact None Slight Moderate High
Time2008Z 21/21Z 21/22Z 21/23Z 22/00Z 22/01Z 22/02Z 22/03Z 22/04Z 22/05Z 22/06Z 22/07Z 22/08Z 22/09Z>>
Type OBS PRVL PRVL PRVL PRVL PRVL PRVL PRVL PRVL PRVL PRVL PRVL PRVL PRVL
  [TEMP]  
VIS 10 >6 >6 >6 >6 >6 >6 >6 >6 >6 >6 >6 >6 >6
CIG 200 200 200 200 200 200 200 200 200 200 200 200 200 200
  [15]  
Cover BKN BKN BKN BKN BKN BKN BKN BKN BKN BKN BKN BKN BKN BKN
  [BKN]  
FltCat VFR VFR VFR VFR VFR VFR VFR VFR VFR VFR VFR VFR VFR VFR
  [MVFR]  
WX TS VCSH VCSH VCSH VCSH -- -- -- -- -- -- -- -- --
  [--]  
WDir 160 150 150 150 150 VRB VRB VRB VRB VRB VRB VRB VRB VRB
[VRB]
WSpd 7 7 7 7 7 4 4 4 4 4 4 4 4 4
  [4]  
WGst -- -- -- -- -- -- -- -- -- -- -- -- -- --
  [--]  
Raw TAF
KMCO 212041Z 2121/2224 15007KT P6SM VCSH FEW015 SCT040 BKN200
  FM220100 VRB04KT P6SM FEW030 BKN200
  TEMPO 2209/2212 SCT008 BKN015 BKN040
  FM221300 20005KT P6SM SCT015 BKN030
  FM221700 24006KT P6SM VCSH SCT025 SCT050 BKN250


Raw METAR
KMCO 212008Z 16007KT 10SM TS FEW010 FEW050CB SCT100 BKN200 BKN300 27/23 A3003 RMK AO2 LTG DSNT S-NW TSE03B08 FRQ LTGICCG NW-N TS NW-N MOV S T02670233
KMCO 211953Z 13010KT 10SM FEW010 SCT049 BKN200 BKN300 27/23 A3003 RMK AO2 WSHFT 1846 LTG DSNT SW TSE29B30E52 SLP166 VCSH SE-SW T02670233
KMCO 211905Z 12014KT 10SM TS FEW016 SCT042CB BKN100 BKN300 28/24 A3003 RMK AO2 WSHFT 1846 OCNL LTGCG NE-SE-S TS NE-SE-S MOV SE VCSH NE-SE-S T02830239
KMCO 211853Z 10014G19KT 8SM TS FEW010 SCT042CB SCT100 BKN300 29/24 A3003 RMK AO2 LTG DSNT NE TSE08B14 SLP166 OCNL LTGCG NE-SE TS NE-SE STNRY VCSH NE-SE T02890239
KMCO 211814Z 00000KT 10SM TS SCT035CB BKN110 BKN300 33/23 A3002 RMK AO2 LTG DSNT E AND SE TSE08B14 OCNL LTGCG NE-SE TS NE-SE STNRY VCSH E-SE T03330233
KMCO 211753Z 35005KT 10SM SCT035TCU BKN300 32/23 A3003 RMK AO2 LTG DSNT E AND SE SLP168 CB DSNT E TCU NE-SE SW VCSH SE T03220233 10328 20250 58014

METAR Board
Radar Display
Forecast Discussion
For situational awareness. Not to be used for flight planning purposes.